Zim Pacific — A8OZ4 — position and weather

sailwx.info

Track history (hours):
 
Tides and Currents Weather Stations Pressure Air Temp Water Temp Dewpoint Dewpoint Depression Visibility Wind Speed Wind Dir Waves Ship Positions

Zim Pacific

Last reported at 2014-Dec-07 19:21 UTC. Time now 2014-Dec-23 03:03 UTC.
Position N 35°30' E 025°34'.
Warning: this ship's position is 15 days out of date.

Length 254 m; draft 11.5 m.

Type: Ship. MMSI: 636016512.

Date/timePositionNaut miles runAvg speedWind from/ knotsBaromVisibWave heightAir tempDewpointWater temp
2014-Dec-07 19:21N 35°30' E 025°34'1012.9
2014-Dec-07 18:32N 35°30' E 025°21'1110.9
2014-Dec-07 17:33N 35°27' E 025°08'16 5.3
2014-Dec-07 14:32N 35°42' E 025°03'1717.8
2014-Dec-07 13:33N 35°60' E 024°58'1616.1
2014-Dec-07 12:33N 36°15' E 024°52'1716.9
2014-Dec-07 11:33N 36°24' E 024°34'1717.1
2014-Dec-07 10:33N 36°34' E 024°17'1716.7
2014-Dec-07 09:33N 36°48' E 024°06'1716.8
2014-Dec-07 08:33N 37°04' E 023°59'1817.2
2014-Dec-07 07:32N 37°21' E 023°51'1616.7
2014-Dec-07 06:33N 37°36' E 023°44'1716.7
2014-Dec-07 05:34N 37°51' E 023°37'6 6.0
2014-Dec-07 04:33N 37°57' E 023°35'0 0.0
2014-Dec-07 03:33N 37°57' E 023°35'0 0.0
2014-Dec-07 02:33N 37°57' E 023°35'0 0.0
2014-Dec-07 01:32N 37°57' E 023°35'0 0.0
2014-Dec-07 00:32N 37°57' E 023°35'0 0.0
2014-Dec-06 23:31N 37°57' E 023°35'0 0.0
2014-Dec-06 22:31N 37°57' E 023°35'0 0.0
2014-Dec-06 21:33N 37°57' E 023°35'0 0.0
2014-Dec-06 20:33N 37°57' E 023°35'0 0.0
2014-Dec-06 19:33N 37°57' E 023°35'0 0.0
2014-Dec-06 18:28N 37°57' E 023°35'0 0.0
2014-Dec-06 17:30N 37°57' E 023°35'0 0.0
2014-Dec-06 16:33N 37°57' E 023°35'0 0.0
2014-Dec-06 15:32N 37°57' E 023°35'0 0.0
2014-Dec-06 14:29N 37°57' E 023°35'0 0.0
2014-Dec-06 13:31N 37°57' E 023°35'0 0.0
2014-Dec-06 12:25N 37°57' E 023°35'0 0.0
2014-Dec-06 11:31N 37°57' E 023°35'0 0.0
2014-Dec-06 10:33N 37°57' E 023°35'0 0.0
2014-Dec-06 09:33N 37°57' E 023°35'0 0.0
2014-Dec-06 08:32N 37°57' E 023°35'0 0.0
2014-Dec-06 07:32N 37°57' E 023°35'0 0.0
2014-Dec-06 06:31N 37°57' E 023°35'0 0.0
2014-Dec-06 05:34N 37°57' E 023°35'2 2.1
2014-Dec-06 04:34N 37°55' E 023°36'2 2.1
2014-Dec-06 03:34N 37°54' E 023°38'1111.5
2014-Dec-06 02:34N 37°43' E 023°44'1414.5
2014-Dec-06 01:33N 37°30' E 023°50'2015.1
2014-Dec-06 00:12N 37°10' E 023°58'1014.9
2014-Dec-05 23:33N 37°01' E 024°01'1515.2
2014-Dec-05 22:33N 36°46' E 024°07'1514.9
2014-Dec-05 21:33N 36°34' E 024°17'1515.4
2014-Dec-05 20:33N 36°25' E 024°33'1515.3
2014-Dec-05 19:33N 36°16' E 024°49'1515.2
2014-Dec-05 18:33N 36°08' E 025°04'1515.3
2014-Dec-05 17:33N 35°59' E 025°20'1515.3
2014-Dec-05 16:33N 35°51' E 025°35'1515.2
2014-Dec-05 15:33N 35°42' E 025°51'337 7.0
2014-Dec-03 15:33N 31°11' E 029°52'8 3.4
2014-Dec-03 13:18N 31°14' E 029°44'0 0.0
2014-Dec-03 02:33N 31°14' E 029°43'0 0.0
2014-Dec-03 00:28N 31°14' E 029°44'0 0.0
2014-Dec-02 23:31N 31°14' E 029°43'0 0.0
2014-Dec-02 19:24N 31°14' E 029°43'  
Track history (hours):
 
Tides and Currents Weather Stations Pressure Air Temp Water Temp Dewpoint Dewpoint Depression Visibility Wind Speed Wind Dir Waves Ship Positions

Zim Pacific

Last reported at 2014-Dec-07 19:21 UTC. Time now 2014-Dec-23 03:03 UTC.
Position N 35°30' E 025°34'.
Warning: this ship's position is 15 days out of date.

Length 254 m; draft 11.5 m.

Type: Ship. MMSI: 636016512.

Date/timePositionNaut miles runAvg speedWind from/ knotsBaromVisibWave heightAir tempDewpointWater temp
2014-Dec-07 19:21N 35°30' E 025°34'1012.9
2014-Dec-07 18:32N 35°30' E 025°21'1110.9
2014-Dec-07 17:33N 35°27' E 025°08'16 5.3
2014-Dec-07 14:32N 35°42' E 025°03'1717.8
2014-Dec-07 13:33N 35°60' E 024°58'1616.1
2014-Dec-07 12:33N 36°15' E 024°52'1716.9
2014-Dec-07 11:33N 36°24' E 024°34'1717.1
2014-Dec-07 10:33N 36°34' E 024°17'1716.7
2014-Dec-07 09:33N 36°48' E 024°06'1716.8
2014-Dec-07 08:33N 37°04' E 023°59'1817.2
2014-Dec-07 07:32N 37°21' E 023°51'1616.7
2014-Dec-07 06:33N 37°36' E 023°44'1716.7
2014-Dec-07 05:34N 37°51' E 023°37'6 6.0
2014-Dec-07 04:33N 37°57' E 023°35'0 0.0
2014-Dec-07 03:33N 37°57' E 023°35'0 0.0
2014-Dec-07 02:33N 37°57' E 023°35'0 0.0
2014-Dec-07 01:32N 37°57' E 023°35'0 0.0
2014-Dec-07 00:32N 37°57' E 023°35'0 0.0
2014-Dec-06 23:31N 37°57' E 023°35'0 0.0
2014-Dec-06 22:31N 37°57' E 023°35'0 0.0
2014-Dec-06 21:33N 37°57' E 023°35'0 0.0
2014-Dec-06 20:33N 37°57' E 023°35'0 0.0
2014-Dec-06 19:33N 37°57' E 023°35'0 0.0
2014-Dec-06 18:28N 37°57' E 023°35'0 0.0
2014-Dec-06 17:30N 37°57' E 023°35'0 0.0
2014-Dec-06 16:33N 37°57' E 023°35'0 0.0
2014-Dec-06 15:32N 37°57' E 023°35'0 0.0
2014-Dec-06 14:29N 37°57' E 023°35'0 0.0
2014-Dec-06 13:31N 37°57' E 023°35'0 0.0
2014-Dec-06 12:25N 37°57' E 023°35'0 0.0
2014-Dec-06 11:31N 37°57' E 023°35'0 0.0
2014-Dec-06 10:33N 37°57' E 023°35'0 0.0
2014-Dec-06 09:33N 37°57' E 023°35'0 0.0
2014-Dec-06 08:32N 37°57' E 023°35'0 0.0
2014-Dec-06 07:32N 37°57' E 023°35'0 0.0
2014-Dec-06 06:31N 37°57' E 023°35'0 0.0
2014-Dec-06 05:34N 37°57' E 023°35'2 2.1
2014-Dec-06 04:34N 37°55' E 023°36'2 2.1
2014-Dec-06 03:34N 37°54' E 023°38'1111.5
2014-Dec-06 02:34N 37°43' E 023°44'1414.5
2014-Dec-06 01:33N 37°30' E 023°50'2015.1
2014-Dec-06 00:12N 37°10' E 023°58'1014.9
2014-Dec-05 23:33N 37°01' E 024°01'1515.2
2014-Dec-05 22:33N 36°46' E 024°07'1514.9
2014-Dec-05 21:33N 36°34' E 024°17'1515.4
2014-Dec-05 20:33N 36°25' E 024°33'1515.3
2014-Dec-05 19:33N 36°16' E 024°49'1515.2
2014-Dec-05 18:33N 36°08' E 025°04'1515.3
2014-Dec-05 17:33N 35°59' E 025°20'1515.3
2014-Dec-05 16:33N 35°51' E 025°35'1515.2
2014-Dec-05 15:33N 35°42' E 025°51'337 7.0
2014-Dec-03 15:33N 31°11' E 029°52'8 3.4
2014-Dec-03 13:18N 31°14' E 029°44'0 0.0
2014-Dec-03 02:33N 31°14' E 029°43'0 0.0
2014-Dec-03 00:28N 31°14' E 029°44'0 0.0
2014-Dec-02 23:31N 31°14' E 029°43'0 0.0
2014-Dec-02 19:24N 31°14' E 029°43'  

Dump ship's entire track history